createdAt,value
2023-01-11T00:02:37.427Z,46.10
2023-01-11T00:05:44.852Z,52.10
2023-01-11T00:08:50.983Z,46.10
2023-01-11T00:11:57.077Z,49.10
2023-01-11T00:15:02.988Z,45.40
2023-01-11T00:18:09.201Z,44.20
2023-01-11T00:24:19.608Z,40.10
2023-01-11T00:27:25.927Z,43.70
2023-01-11T00:33:37.052Z,39.40
2023-01-11T00:36:43.221Z,42.90
2023-01-11T00:39:49.347Z,35.50
2023-01-11T00:43:12.989Z,37.20
2023-01-11T00:46:35.708Z,34.10
2023-01-11T00:49:41.772Z,37.80
2023-01-11T00:52:48.047Z,36.20
2023-01-11T00:58:58.576Z,36.30
2023-01-11T01:02:04.884Z,34.80
2023-01-11T01:08:16.090Z,33.80
2023-01-11T01:11:22.694Z,34.30
2023-01-11T01:14:30.002Z,34.30
2023-01-11T01:17:35.998Z,33.30
2023-01-11T01:20:42.356Z,34.60
2023-01-11T01:26:53.011Z,36.60
2023-01-11T01:29:59.188Z,34.10
2023-01-11T01:33:05.156Z,32.50
2023-01-11T01:36:12.146Z,34.50
2023-01-11T01:39:18.148Z,32.90
2023-01-11T01:42:24.531Z,33.60
2023-01-11T01:45:30.949Z,30.90
2023-01-11T01:48:37.757Z,33.20
2023-01-11T01:51:47.816Z,31.90
2023-01-11T01:54:53.921Z,33.60
2023-01-11T01:58:02.667Z,30.70
2023-01-11T02:01:23.081Z,30.60
2023-01-11T02:04:32.818Z,29.50
2023-01-11T02:07:43.411Z,29.30
2023-01-11T02:10:50.958Z,31.30
2023-01-11T02:13:58.111Z,31.90
2023-01-11T02:17:04.391Z,30.90
2023-01-11T02:23:45.947Z,32.00
2023-01-11T02:27:17.327Z,45.80
2023-01-11T02:30:33.213Z,37.60
2023-01-11T02:33:49.426Z,46.70
2023-01-11T02:37:08.963Z,54.40
2023-01-11T02:40:23.866Z,43.70
2023-01-11T02:43:52.407Z,37.10
2023-01-11T02:47:01.890Z,48.80
2023-01-11T02:50:16.379Z,46.60
2023-01-11T02:53:30.031Z,31.60
2023-01-11T02:56:40.494Z,35.60
2023-01-11T02:59:50.048Z,32.60
2023-01-11T03:03:15.244Z,33.50
2023-01-11T03:06:23.382Z,33.10
2023-01-11T03:09:39.623Z,31.30
2023-01-11T03:12:57.934Z,32.90
2023-01-11T03:16:24.463Z,31.30
2023-01-11T03:19:39.096Z,32.30
2023-01-11T03:22:58.362Z,31.60
2023-01-11T03:26:16.080Z,30.70
2023-01-11T03:29:30.745Z,31.30
2023-01-11T03:32:44.505Z,33.00
2023-01-11T03:35:55.085Z,32.40
2023-01-11T03:39:10.538Z,32.10
2023-01-11T03:42:20.686Z,30.10
2023-01-11T03:45:28.805Z,30.70
2023-01-11T03:48:39.946Z,31.90
2023-01-11T03:51:47.440Z,31.60
2023-01-11T03:54:54.229Z,32.50
2023-01-11T03:58:01.453Z,31.00
2023-01-11T04:01:08.131Z,32.80
2023-01-11T04:04:14.410Z,33.80
2023-01-11T04:07:20.563Z,30.10
2023-01-11T04:10:26.766Z,30.20
2023-01-11T04:13:34.150Z,31.00
2023-01-11T04:16:40.247Z,31.40
2023-01-11T04:19:46.380Z,30.90
2023-01-11T04:22:52.275Z,32.40
2023-01-11T04:25:58.281Z,29.70
2023-01-11T04:29:04.317Z,28.70
2023-01-11T04:32:10.350Z,28.90
2023-01-11T04:35:16.638Z,30.50
2023-01-11T04:41:47.505Z,29.70
2023-01-11T04:44:54.215Z,29.80
2023-01-11T04:48:00.664Z,30.30
2023-01-11T04:51:07.431Z,31.50
2023-01-11T04:54:13.392Z,29.60
2023-01-11T04:57:19.709Z,32.00
2023-01-11T05:03:32.003Z,29.30
2023-01-11T05:06:38.321Z,29.80
2023-01-11T05:12:49.554Z,30.70
2023-01-11T05:15:55.588Z,29.70
2023-01-11T05:19:02.363Z,35.00
2023-01-11T05:22:08.556Z,29.70
2023-01-11T05:25:14.669Z,30.10
2023-01-11T05:28:20.608Z,29.90
2023-01-11T05:31:26.978Z,30.60
2023-01-11T05:34:33.052Z,29.10
2023-01-11T05:37:38.992Z,31.80
2023-01-11T05:40:45.226Z,30.30
2023-01-11T05:44:09.938Z,30.90
2023-01-11T05:47:16.125Z,30.40
2023-01-11T05:50:22.645Z,31.20
2023-01-11T05:53:28.748Z,32.70
2023-01-11T05:56:35.050Z,32.60
2023-01-11T06:02:45.619Z,31.80
2023-01-11T06:05:52.052Z,30.30
2023-01-11T06:08:58.232Z,31.80
2023-01-11T06:12:04.270Z,31.90
2023-01-11T06:15:11.921Z,30.00
2023-01-11T06:18:18.854Z,30.40
2023-01-11T06:21:25.253Z,29.50
2023-01-11T06:27:35.811Z,26.10
2023-01-11T06:30:42.617Z,30.10
2023-01-11T06:33:48.851Z,30.30
2023-01-11T06:36:54.837Z,29.40
2023-01-11T06:40:00.903Z,28.00
2023-01-11T06:43:08.197Z,29.60
2023-01-11T06:46:15.933Z,29.60
2023-01-11T06:49:22.254Z,27.20
2023-01-11T06:52:28.196Z,28.80
2023-01-11T06:55:34.179Z,26.40
2023-01-11T06:58:40.258Z,27.60
2023-01-11T07:01:46.506Z,27.40
2023-01-11T07:07:57.407Z,29.50
2023-01-11T07:11:04.105Z,28.60
2023-01-11T07:14:12.274Z,29.10
2023-01-11T07:17:18.325Z,29.90
2023-01-11T07:20:25.276Z,28.60
2023-01-11T07:23:31.310Z,32.60
2023-01-11T07:26:41.383Z,30.10
2023-01-11T07:29:47.696Z,39.40
2023-01-11T07:32:53.738Z,37.20
2023-01-11T07:36:00.964Z,40.10
2023-01-11T07:39:07.113Z,47.80
2023-01-11T07:42:31.619Z,56.70
2023-01-11T07:45:45.646Z,47.80
2023-01-11T07:48:52.691Z,40.90
2023-01-11T07:51:59.043Z,38.30
2023-01-11T07:58:12.004Z,37.70
2023-01-11T08:01:18.019Z,42.40
2023-01-11T08:04:24.063Z,40.20
2023-01-11T08:07:30.124Z,42.10
2023-01-11T08:10:36.294Z,37.50
2023-01-11T08:17:04.552Z,47.40
2023-01-11T08:20:12.645Z,62.10
2023-01-11T08:23:18.764Z,58.10
2023-01-11T08:26:25.545Z,58.70
2023-01-11T08:29:31.899Z,52.10
2023-01-11T08:35:42.389Z,66.10
2023-01-11T08:38:48.572Z,53.30
2023-01-11T08:41:54.619Z,53.10
2023-01-11T08:45:00.712Z,58.50
2023-01-11T08:48:07.502Z,58.00
2023-01-11T08:51:13.977Z,59.10
2023-01-11T08:54:20.007Z,60.50
2023-01-11T08:57:26.079Z,59.40
2023-01-11T09:00:32.415Z,53.50
2023-01-11T09:06:42.832Z,54.10
2023-01-11T09:09:48.892Z,52.20
2023-01-11T09:12:55.535Z,48.90
2023-01-11T09:16:01.831Z,50.60
2023-01-11T09:22:12.447Z,47.10
2023-01-11T09:25:19.460Z,42.80
2023-01-11T09:28:25.489Z,23.10
2023-01-11T09:31:31.635Z,18.20
2023-01-11T09:34:37.594Z,17.20
2023-01-11T09:37:46.082Z,15.40
2023-01-11T09:41:01.796Z,14.30
2023-01-11T09:44:16.559Z,13.50
2023-01-11T09:47:31.913Z,13.90
2023-01-11T09:50:43.466Z,13.20
2023-01-11T09:53:52.446Z,15.70
2023-01-11T09:57:10.590Z,13.90
2023-01-11T10:00:27.388Z,13.60
2023-01-11T10:04:26.014Z,14.00
2023-01-11T10:18:29.666Z,16.30
2023-01-11T10:19:19.074Z,13.80
2023-01-11T10:22:28.061Z,14.30
2023-01-11T10:25:42.761Z,13.80
2023-01-11T10:29:17.555Z,14.50
2023-01-11T10:32:45.906Z,14.40
2023-01-11T10:36:14.977Z,16.80
2023-01-11T10:39:46.702Z,15.60
2023-01-11T10:43:00.075Z,15.00
2023-01-11T10:46:12.340Z,14.10
2023-01-11T10:49:35.930Z,15.20
2023-01-11T10:52:48.160Z,15.40
2023-01-11T10:56:02.316Z,14.30
2023-01-11T10:59:22.869Z,16.30
2023-01-11T11:02:45.217Z,16.40
2023-01-11T11:06:02.220Z,15.40
2023-01-11T11:09:15.873Z,15.40
2023-01-11T11:12:25.105Z,15.20
2023-01-11T11:15:38.744Z,15.40
2023-01-11T11:18:45.611Z,16.60
2023-01-11T11:21:54.037Z,14.70
2023-01-11T11:25:05.332Z,15.40
2023-01-11T11:28:28.049Z,16.40
2023-01-11T11:31:36.441Z,15.20
2023-01-11T11:34:49.820Z,15.10
2023-01-11T11:37:57.347Z,14.30
2023-01-11T11:41:09.323Z,16.10
2023-01-11T11:44:21.021Z,17.30
2023-01-11T11:47:27.301Z,14.40
2023-01-11T11:50:44.812Z,15.20
2023-01-11T11:53:55.824Z,14.90
2023-01-11T11:57:14.642Z,15.20
2023-01-11T12:00:28.062Z,15.40
2023-01-11T12:03:34.727Z,14.50
2023-01-11T12:06:41.608Z,14.50
2023-01-11T12:09:51.118Z,14.50
2023-01-11T12:12:59.178Z,15.60
2023-01-11T12:16:08.118Z,14.40
2023-01-11T12:19:34.825Z,13.50
2023-01-11T12:22:40.840Z,12.50
2023-01-11T12:26:01.422Z,14.50
2023-01-11T12:29:23.103Z,12.80
2023-01-11T12:32:44.059Z,13.90
2023-01-11T12:35:57.661Z,13.60
2023-01-11T12:39:11.242Z,12.70
2023-01-11T12:42:39.007Z,12.50
2023-01-11T12:45:51.428Z,12.80
2023-01-11T12:49:14.573Z,12.80
2023-01-11T12:52:46.733Z,12.00
2023-01-11T12:56:04.589Z,11.40
2023-01-11T12:59:21.774Z,12.40
2023-01-11T13:02:50.113Z,12.00
2023-01-11T13:06:03.625Z,11.40
2023-01-11T13:09:23.625Z,12.60
2023-01-11T13:12:38.066Z,15.70
2023-01-11T13:15:53.703Z,13.90
2023-01-11T13:19:05.879Z,13.70
2023-01-11T13:22:18.130Z,15.00
2023-01-11T13:25:27.918Z,15.70
2023-01-11T13:28:37.820Z,13.60
2023-01-11T13:31:47.519Z,13.40
2023-01-11T13:34:59.200Z,13.40
2023-01-11T13:38:13.380Z,14.00
2023-01-11T13:41:24.298Z,13.70
2023-01-11T13:44:37.179Z,13.90
2023-01-11T13:47:45.998Z,13.30
2023-01-11T13:50:55.897Z,12.80
2023-01-11T13:54:08.967Z,13.10
2023-01-11T13:57:23.324Z,13.70
2023-01-11T14:00:36.748Z,14.10
2023-01-11T14:03:49.605Z,14.70
2023-01-11T14:07:09.902Z,13.30
2023-01-11T14:10:32.413Z,13.50
2023-01-11T14:14:12.802Z,13.60
2023-01-11T14:17:40.141Z,15.10
2023-01-11T14:20:52.549Z,15.90
2023-01-11T14:23:59.942Z,14.90
2023-01-11T14:27:31.667Z,14.20
2023-01-11T14:31:00.266Z,15.80
2023-01-11T14:34:26.875Z,14.70
2023-01-11T14:38:01.796Z,14.20
2023-01-11T14:41:47.334Z,14.40
2023-01-11T14:45:07.248Z,14.00
2023-01-11T14:48:25.800Z,21.90
2023-01-11T14:51:38.428Z,15.30
2023-01-11T14:54:46.942Z,15.30
2023-01-11T14:58:17.577Z,15.90
2023-01-11T15:01:23.641Z,16.00
2023-01-11T15:04:30.701Z,13.00
2023-01-11T15:07:45.013Z,15.00
2023-01-11T15:10:59.555Z,13.90
2023-01-11T15:14:15.487Z,15.60
2023-01-11T15:17:42.680Z,15.90
2023-01-11T15:20:55.988Z,15.00
2023-01-11T15:24:02.099Z,20.10
2023-01-11T15:27:08.494Z,16.70
2023-01-11T15:30:39.599Z,15.80
2023-01-11T15:33:55.343Z,23.00
2023-01-11T15:37:33.171Z,16.70
2023-01-11T15:40:42.460Z,20.60
2023-01-11T15:44:04.723Z,23.20
2023-01-11T15:47:47.361Z,20.60
2023-01-11T15:51:14.139Z,24.50
2023-01-11T15:54:41.945Z,24.30
2023-01-11T15:58:16.574Z,21.20
2023-01-11T16:01:28.508Z,19.60
2023-01-11T16:04:40.736Z,18.60
2023-01-11T16:07:54.451Z,18.90
2023-01-11T16:11:09.836Z,23.40
2023-01-11T16:14:39.879Z,26.60
2023-01-11T16:17:48.627Z,30.60
2023-01-11T16:21:03.495Z,26.70
2023-01-11T16:24:15.284Z,22.00
2023-01-11T16:27:26.928Z,23.70
2023-01-11T16:30:34.987Z,34.00
2023-01-11T16:33:41.013Z,21.80
2023-01-11T16:36:49.232Z,22.00
2023-01-11T16:39:59.215Z,30.20
2023-01-11T16:43:09.684Z,40.20
2023-01-11T16:46:53.124Z,51.10
2023-01-11T16:50:19.349Z,46.50
2023-01-11T16:53:26.270Z,103.20
2023-01-11T16:56:35.462Z,59.90
2023-01-11T16:59:41.540Z,51.70
2023-01-11T17:02:50.249Z,36.20
2023-01-11T17:06:18.606Z,36.90
2023-01-11T17:09:26.019Z,43.40
2023-01-11T17:12:32.076Z,65.00
2023-01-11T17:15:47.977Z,75.30
2023-01-11T17:18:54.656Z,58.00
2023-01-11T17:22:06.794Z,43.50
2023-01-11T17:25:22.109Z,45.90
2023-01-11T17:28:28.202Z,52.30
2023-01-11T17:31:37.100Z,56.50
2023-01-11T17:34:44.044Z,45.80
2023-01-11T17:37:52.813Z,61.90
2023-01-11T17:41:01.303Z,52.40
2023-01-11T17:44:31.893Z,49.40
2023-01-11T17:47:41.540Z,58.20
2023-01-11T17:50:54.528Z,69.20
2023-01-11T17:54:00.963Z,53.70
2023-01-11T17:57:07.673Z,62.00
2023-01-11T18:00:25.984Z,58.00
2023-01-11T18:03:32.526Z,57.60
2023-01-11T18:06:40.897Z,50.90
2023-01-11T18:09:50.396Z,50.00
2023-01-11T18:12:58.177Z,53.90
2023-01-11T18:16:04.922Z,49.30
2023-01-11T18:19:31.918Z,61.20
2023-01-11T18:22:41.896Z,75.80
2023-01-11T18:25:48.131Z,72.70
2023-01-11T18:28:54.165Z,69.40
2023-01-11T18:32:00.211Z,66.40
2023-01-11T18:35:16.968Z,77.30
2023-01-11T18:38:30.936Z,66.00
2023-01-11T18:41:55.771Z,69.90
2023-01-11T18:45:02.321Z,71.00
2023-01-11T18:48:13.022Z,116.20
2023-01-11T18:51:23.115Z,68.20
2023-01-11T18:54:29.222Z,55.90
2023-01-11T18:57:35.259Z,130.90
2023-01-11T19:00:42.325Z,63.50
2023-01-11T19:03:49.043Z,82.60
2023-01-11T19:06:55.170Z,62.70
2023-01-11T19:10:01.711Z,64.80
2023-01-11T19:13:07.909Z,89.00
2023-01-11T19:16:13.992Z,110.70
2023-01-11T19:19:20.554Z,129.70
2023-01-11T19:22:26.991Z,139.00
2023-01-11T19:25:33.199Z,134.00
2023-01-11T19:28:39.797Z,123.10
2023-01-11T19:31:46.250Z,122.60
2023-01-11T19:34:53.026Z,111.00
2023-01-11T19:37:59.472Z,110.20
2023-01-11T19:41:11.098Z,127.80
2023-01-11T19:44:17.121Z,134.80
2023-01-11T19:47:23.345Z,144.50
2023-01-11T19:53:34.171Z,145.80
2023-01-11T19:59:44.926Z,123.70
2023-01-11T20:02:51.115Z,90.60
2023-01-11T20:06:08.291Z,81.10
2023-01-11T20:09:14.248Z,72.70
2023-01-11T20:12:20.304Z,73.90
2023-01-11T20:15:26.704Z,74.80
2023-01-11T20:21:37.324Z,79.90
2023-01-11T20:27:47.658Z,79.30
2023-01-11T20:30:54.131Z,81.50
2023-01-11T20:34:01.334Z,77.00
2023-01-11T20:37:07.404Z,98.30
2023-01-11T20:40:14.735Z,81.20
2023-01-11T20:43:20.651Z,89.40
2023-01-11T20:46:26.744Z,87.70
2023-01-11T20:49:32.815Z,82.90
2023-01-11T20:52:38.816Z,81.20
2023-01-11T20:55:44.826Z,75.50
2023-01-11T20:58:52.140Z,79.50
2023-01-11T21:01:58.296Z,70.80
2023-01-11T21:05:04.530Z,37.90
2023-01-11T21:08:10.706Z,22.80
2023-01-11T21:11:17.999Z,23.60
2023-01-11T21:14:24.254Z,50.60
2023-01-11T21:17:30.370Z,89.60
2023-01-11T21:20:36.730Z,81.50
2023-01-11T21:23:42.759Z,73.20
2023-01-11T21:26:48.919Z,71.90
2023-01-11T21:29:54.951Z,72.00
2023-01-11T21:33:01.049Z,68.50
2023-01-11T21:36:11.351Z,69.00
2023-01-11T21:39:18.154Z,64.30
2023-01-11T21:42:24.140Z,68.10
2023-01-11T21:45:30.090Z,65.60
2023-01-11T21:48:36.782Z,69.10
2023-01-11T21:51:43.901Z,42.60
2023-01-11T21:54:52.199Z,47.70
2023-01-11T21:57:58.289Z,62.00
2023-01-11T22:01:12.489Z,51.30
2023-01-11T22:04:20.834Z,55.00
2023-01-11T22:07:28.434Z,48.90
2023-01-11T22:10:34.773Z,55.00
2023-01-11T22:13:40.925Z,48.20
2023-01-11T22:16:46.935Z,65.20
2023-01-11T22:19:53.493Z,47.20
2023-01-11T22:22:59.591Z,43.40
2023-01-11T22:26:07.961Z,33.40
2023-01-11T22:29:15.283Z,29.80
2023-01-11T22:32:21.651Z,42.90
2023-01-11T22:35:27.936Z,42.10
2023-01-11T22:41:40.169Z,32.70
2023-01-11T22:44:46.578Z,21.10
2023-01-11T22:50:57.465Z,15.60
2023-01-11T22:54:03.518Z,14.80
2023-01-11T22:57:09.683Z,14.60
2023-01-11T23:00:16.588Z,13.00
2023-01-11T23:03:22.764Z,15.60
2023-01-11T23:06:30.713Z,17.00
2023-01-11T23:09:36.720Z,13.50
2023-01-11T23:13:00.644Z,14.40
2023-01-11T23:16:08.068Z,13.20
2023-01-11T23:19:16.434Z,18.40
2023-01-11T23:22:22.458Z,14.30
2023-01-11T23:25:28.571Z,13.00
2023-01-11T23:28:34.754Z,13.50
2023-01-11T23:31:40.783Z,18.50
2023-01-11T23:34:46.847Z,14.50
2023-01-11T23:37:54.892Z,20.00
2023-01-11T23:41:25.443Z,21.00
2023-01-11T23:44:31.886Z,13.40
2023-01-11T23:47:37.804Z,18.30
2023-01-11T23:50:43.851Z,13.80
2023-01-11T23:53:51.255Z,13.30
2023-01-11T23:56:57.288Z,14.00
